Thompson Ridge, New York
Current Conditions -  °F | °C
As of 7:54 PM on Thursday 27 Nov 2014 (Local Time) from KMGJ Reporting Station
Haze Haze  
Wind Chill: 30°   Ceiling: 3500
Heat Index: 30°   Visibility: 4mi
Dew Point: 28°   Wind: 0mph
Humidity: 92%   Direction: NA
Pressure: 30.03"   Gusts: NA
Location:  41.57°N, 74.33°W
Report Text: KMGJ 280054Z AUTO 00000KT 4SM BR BKN035 OVC043 M01/M02 A3003 RMK AO2 SLP171 I1001 T10111022 TSNO $
Loading
Personal Weather Stations






























Interactive Weather Map New forecast layout! Learn more

10-Day Weather Forecast

Advertisements
Track Severe Weather on mobile